createdAt,value
2018-12-20T13:50:10.424Z,7.08
2018-12-20T13:52:40.603Z,7.06
2018-12-20T13:55:09.911Z,7.04
2018-12-20T13:57:39.373Z,7.03
2018-12-20T14:00:13.530Z,7.04
2018-12-20T14:02:43.069Z,7.02
2018-12-20T14:05:12.388Z,7.01
2018-12-20T14:07:41.784Z,6.98
2018-12-20T14:10:12.891Z,6.96
2018-12-20T14:12:42.981Z,6.96
2018-12-20T14:15:12.492Z,6.90
2018-12-20T14:17:41.993Z,6.85
2018-12-20T14:20:15.675Z,6.80
2018-12-20T14:22:45.131Z,6.73
2018-12-20T14:25:14.521Z,6.68
2018-12-20T14:27:43.779Z,6.62
2018-12-20T14:30:13.125Z,6.62
2018-12-20T14:32:42.444Z,6.58
2018-12-20T14:35:11.821Z,6.54
2018-12-20T14:37:41.167Z,6.50
2018-12-20T14:40:15.429Z,6.47
2018-12-20T14:42:51.022Z,6.41
2018-12-20T14:45:20.687Z,6.37
2018-12-20T14:47:50.818Z,6.35
2018-12-20T14:50:20.203Z,6.33
2018-12-20T14:52:50.162Z,6.28
2018-12-20T14:55:20.258Z,6.26
2018-12-20T14:57:50.429Z,6.20
2018-12-20T15:00:20.936Z,6.13
2018-12-20T15:02:50.385Z,6.13
2018-12-20T15:05:19.734Z,6.11
2018-12-20T15:07:49.035Z,6.10
2018-12-20T15:10:20.214Z,6.07
2018-12-20T15:12:49.664Z,6.05
2018-12-20T15:15:20.823Z,6.05
2018-12-20T15:17:50.206Z,6.03
2018-12-20T15:20:21.403Z,5.99
2018-12-20T15:22:52.267Z,5.94
2018-12-20T15:25:24.995Z,5.88
2018-12-20T15:27:54.299Z,5.82
2018-12-20T15:30:24.482Z,5.78
2018-12-20T15:32:53.971Z,5.73
2018-12-20T15:35:23.397Z,5.67
2018-12-20T15:37:52.773Z,5.61
2018-12-20T15:40:23.919Z,5.57
2018-12-20T15:42:58.410Z,5.56
2018-12-20T15:45:28.632Z,5.53
2018-12-20T15:47:59.813Z,5.51
2018-12-20T15:51:00.244Z,5.50
2018-12-20T15:53:31.086Z,5.49
2018-12-20T15:56:02.538Z,5.45
2018-12-20T15:58:32.150Z,5.42
2018-12-20T16:01:01.579Z,5.39
2018-12-20T16:03:31.082Z,5.38
2018-12-20T16:06:01.163Z,5.37
2018-12-20T16:08:30.635Z,5.33
2018-12-20T16:10:59.942Z,5.32
2018-12-20T16:13:29.310Z,5.30
2018-12-20T16:15:58.690Z,5.27
2018-12-20T16:18:29.800Z,5.25
2018-12-20T16:20:59.089Z,5.22
2018-12-20T16:23:28.632Z,5.17
2018-12-20T16:25:59.681Z,5.12
2018-12-20T16:28:29.732Z,5.04
2018-12-20T16:30:59.049Z,4.98
2018-12-20T16:33:28.837Z,4.90
2018-12-20T16:36:00.175Z,4.84
2018-12-20T16:38:29.433Z,4.81
2018-12-20T16:40:58.976Z,4.80
2018-12-20T16:43:30.388Z,4.77
2018-12-20T16:46:00.010Z,4.72
2018-12-20T16:48:29.983Z,4.70
2018-12-20T16:50:59.297Z,4.69
2018-12-20T16:53:29.098Z,4.66
2018-12-20T16:55:59.260Z,4.63
2018-12-20T16:58:30.409Z,4.62
2018-12-20T17:01:00.325Z,4.62
2018-12-20T17:03:29.645Z,4.61
2018-12-20T17:06:00.243Z,4.59
2018-12-20T17:08:30.565Z,4.57
2018-12-20T17:10:59.928Z,4.56
2018-12-20T17:13:31.190Z,4.49
2018-12-20T17:16:00.526Z,4.53
2018-12-20T17:18:30.610Z,4.50
2018-12-20T17:21:01.536Z,4.52
2018-12-20T17:23:35.634Z,4.51
2018-12-20T17:26:03.003Z,4.51
2018-12-20T17:28:33.120Z,4.48
2018-12-20T17:31:03.367Z,4.44
2018-12-20T17:33:32.766Z,4.42
2018-12-20T17:36:02.133Z,4.38
2018-12-20T17:38:31.444Z,4.34
2018-12-20T17:41:00.801Z,4.32
2018-12-20T17:43:30.893Z,4.28
2018-12-20T17:46:01.086Z,4.27
2018-12-20T17:48:30.539Z,4.23
2018-12-20T17:51:00.634Z,4.22
2018-12-20T17:53:31.117Z,4.20
2018-12-20T17:56:01.271Z,4.19
2018-12-20T17:58:30.802Z,4.17
2018-12-20T18:01:01.109Z,4.16
2018-12-20T18:03:31.249Z,4.15
2018-12-20T18:06:03.088Z,4.14
2018-12-20T18:08:33.215Z,4.12
2018-12-20T18:11:02.599Z,4.10
2018-12-20T18:13:31.938Z,4.08
2018-12-20T18:16:01.399Z,4.03
2018-12-20T18:18:30.740Z,4.00
2018-12-20T18:21:00.396Z,3.96
2018-12-20T18:23:30.005Z,3.93
2018-12-20T18:26:00.074Z,3.93
2018-12-20T18:28:30.403Z,3.93
2018-12-20T18:31:00.151Z,3.94
2018-12-20T18:33:30.141Z,3.94
2018-12-20T18:36:00.153Z,3.93
2018-12-20T18:38:30.203Z,3.97
2018-12-20T18:41:00.358Z,3.99
2018-12-20T18:43:30.224Z,4.03
2018-12-20T18:46:01.937Z,4.06
2018-12-20T18:48:31.251Z,4.08
2018-12-20T18:51:00.686Z,4.11
2018-12-20T18:53:30.507Z,4.13
2018-12-20T18:56:01.247Z,4.14
2018-12-20T18:58:30.580Z,4.17
2018-12-20T19:01:01.799Z,4.20
2018-12-20T19:03:31.229Z,4.21
2018-12-20T19:06:00.592Z,4.23
2018-12-20T19:08:30.826Z,4.24
2018-12-20T19:11:00.646Z,4.26
2018-12-20T19:13:31.817Z,4.25
2018-12-20T19:18:36.990Z,4.27
2018-12-20T19:21:06.494Z,4.28
2018-12-20T19:23:38.293Z,4.27
2018-12-20T19:26:09.765Z,4.27
2018-12-20T19:28:40.069Z,4.27
2018-12-20T19:33:53.552Z,4.28
2018-12-20T19:36:24.820Z,4.29
2018-12-20T19:38:55.244Z,4.30
2018-12-20T19:41:24.723Z,4.29
2018-12-20T19:43:54.330Z,4.28
2018-12-20T19:46:24.648Z,4.26
2018-12-20T19:48:54.020Z,4.25
2018-12-20T19:51:24.285Z,4.21
2018-12-20T19:53:53.768Z,4.19
2018-12-20T19:56:23.184Z,4.15
2018-12-20T19:58:53.395Z,4.11
2018-12-20T20:01:22.752Z,4.08
2018-12-20T20:03:52.179Z,4.06
2018-12-20T20:06:21.612Z,4.02
2018-12-20T20:08:52.846Z,3.99
2018-12-20T20:11:22.250Z,3.95
2018-12-20T20:13:51.598Z,3.92
2018-12-20T20:16:21.697Z,3.91
2018-12-20T20:18:51.063Z,3.87
2018-12-20T20:21:22.634Z,3.77
2018-12-20T20:23:52.055Z,3.80
2018-12-20T20:26:23.120Z,3.77
2018-12-20T20:28:53.784Z,3.74
2018-12-20T20:31:23.105Z,3.70
2018-12-20T20:33:52.509Z,3.67
2018-12-20T20:36:26.169Z,3.65
2018-12-20T20:39:01.922Z,3.64
2018-12-20T20:41:29.470Z,3.62
2018-12-20T20:43:58.944Z,3.62
2018-12-20T20:46:29.000Z,3.61
2018-12-20T20:49:01.191Z,3.58
2018-12-20T21:10:03.023Z,3.29
2018-12-20T21:12:32.575Z,3.19
2018-12-20T21:15:01.991Z,3.11
2018-12-20T21:17:33.312Z,3.03
2018-12-20T21:20:02.705Z,2.98
2018-12-20T21:22:32.196Z,2.93
2018-12-20T21:25:03.801Z,2.88
2018-12-20T21:27:33.191Z,2.86
2018-12-20T21:30:03.339Z,2.85
2018-12-20T21:32:33.196Z,2.82
2018-12-20T21:35:02.547Z,2.84
2018-12-20T21:37:32.250Z,2.81
2018-12-20T21:40:03.037Z,2.83
2018-12-20T21:42:32.324Z,2.85
2018-12-20T21:45:02.602Z,2.86
2018-12-20T21:47:32.310Z,2.87
2018-12-20T21:50:03.141Z,2.87
2018-12-20T21:52:33.506Z,2.87
2018-12-20T21:55:02.911Z,2.86
2018-12-20T21:57:33.512Z,2.87
2018-12-20T22:00:03.795Z,2.88
2018-12-20T22:02:33.225Z,2.88
2018-12-20T22:05:04.377Z,2.88
2018-12-20T22:07:33.774Z,2.88
2018-12-20T22:10:07.034Z,2.86
2018-12-20T22:12:36.602Z,2.85
2018-12-20T22:15:06.327Z,2.86
2018-12-20T22:17:36.635Z,2.89
2018-12-20T22:20:07.079Z,2.88
2018-12-20T22:22:37.164Z,2.89
2018-12-20T22:25:07.579Z,2.90
2018-12-20T22:27:37.935Z,2.94
2018-12-20T22:30:09.241Z,2.92
2018-12-20T22:32:38.613Z,3.00
2018-12-20T22:35:08.107Z,3.03
2018-12-20T22:37:37.663Z,3.04
2018-12-20T22:40:08.142Z,3.06
2018-12-20T22:42:38.311Z,3.08
2018-12-20T22:45:09.060Z,3.12
2018-12-20T22:47:38.416Z,3.15
2018-12-20T22:50:09.800Z,3.15
2018-12-20T22:52:39.459Z,3.17
2018-12-20T22:55:08.919Z,3.17
2018-12-20T22:57:38.289Z,3.17
2018-12-20T23:00:09.969Z,3.17
2018-12-20T23:02:39.407Z,3.18
2018-12-20T23:05:08.837Z,3.21
2018-12-20T23:07:38.154Z,3.24
2018-12-20T23:10:08.093Z,3.28
2018-12-20T23:12:38.185Z,3.31
2018-12-20T23:15:07.531Z,3.35
2018-12-20T23:17:37.628Z,3.35
2018-12-20T23:20:12.255Z,3.38
2018-12-20T23:22:41.741Z,3.37
2018-12-20T23:25:13.869Z,3.35
2018-12-20T23:27:43.914Z,3.32
2018-12-20T23:30:13.285Z,3.29
2018-12-20T23:32:42.746Z,3.24
2018-12-20T23:35:12.047Z,3.21
2018-12-20T23:37:41.453Z,3.21
2018-12-20T23:40:12.365Z,3.21
2018-12-20T23:42:44.352Z,3.20
2018-12-20T23:45:14.374Z,3.20
2018-12-20T23:47:43.715Z,3.21
2018-12-20T23:50:13.022Z,3.16
2018-12-20T23:52:42.491Z,3.12
2018-12-20T23:55:11.776Z,3.08
2018-12-20T23:57:41.723Z,3.05
